createdAt,value
2023-04-01T00:02:43.002Z,0
2023-04-01T00:07:42.897Z,0
2023-04-01T00:12:42.847Z,0
2023-04-01T00:18:31.635Z,0
2023-04-01T00:22:47.952Z,0
2023-04-01T00:27:43.152Z,0
2023-04-01T00:32:42.885Z,0
2023-04-01T00:37:42.888Z,0
2023-04-01T00:42:42.922Z,0
2023-04-01T00:47:43.020Z,0
2023-04-01T00:52:42.896Z,0
2023-04-01T00:57:42.971Z,0
2023-04-01T01:03:07.075Z,0
2023-04-01T01:07:42.888Z,0
2023-04-01T01:12:42.895Z,0
2023-04-01T01:17:43.003Z,0
2023-04-01T01:22:44.109Z,0
2023-04-01T01:27:42.857Z,0
2023-04-01T01:32:43.087Z,0
2023-04-01T01:37:42.940Z,0
2023-04-01T01:42:42.983Z,0
2023-04-01T01:47:42.947Z,0
2023-04-01T01:52:42.980Z,0
2023-04-01T01:57:42.913Z,0
2023-04-01T02:02:43.007Z,0
2023-04-01T02:07:42.895Z,0
2023-04-01T02:12:42.863Z,0
2023-04-01T02:17:42.979Z,0
2023-04-01T02:22:43.440Z,0
2023-04-01T02:27:43.304Z,0
2023-04-01T02:32:43.014Z,0
2023-04-01T02:37:42.931Z,0
2023-04-01T02:42:43.101Z,0
2023-04-01T02:47:43.018Z,0
2023-04-01T02:52:42.907Z,0
2023-04-01T02:57:43.048Z,0
2023-04-01T03:02:42.958Z,0
2023-04-01T03:07:42.905Z,0
2023-04-01T03:12:42.976Z,0
2023-04-01T03:17:42.890Z,0
2023-04-01T03:22:44.442Z,0
2023-04-01T03:27:42.858Z,0
2023-04-01T03:32:42.857Z,0
2023-04-01T03:37:42.873Z,0
2023-04-01T03:42:42.896Z,0
2023-04-01T03:47:42.903Z,0
2023-04-01T03:52:42.824Z,0
2023-04-01T03:57:42.883Z,0
2023-04-01T04:02:42.908Z,0
2023-04-01T04:07:46.121Z,0
2023-04-01T04:12:42.963Z,0
2023-04-01T04:17:42.901Z,0
2023-04-01T04:22:43.170Z,0
2023-04-01T04:27:42.847Z,0
2023-04-01T04:32:42.882Z,0
2023-04-01T04:37:42.847Z,0
2023-04-01T04:42:43.102Z,0
2023-04-01T04:47:42.867Z,0
2023-04-01T04:52:42.906Z,0
2023-04-01T04:57:42.877Z,0
2023-04-01T05:02:43.045Z,0
2023-04-01T05:07:43.023Z,0
2023-04-01T05:12:42.837Z,0
2023-04-01T05:17:42.885Z,0
2023-04-01T05:22:42.917Z,265
2023-04-01T05:27:42.869Z,265
2023-04-01T05:32:42.946Z,266
2023-04-01T05:37:42.876Z,269
2023-04-01T05:42:42.928Z,270
2023-04-01T05:47:42.950Z,278
2023-04-01T05:52:42.887Z,273
2023-04-01T05:57:42.865Z,288
2023-04-01T06:02:42.989Z,286
2023-04-01T06:07:42.916Z,283
2023-04-01T06:12:42.906Z,293
2023-04-01T06:17:46.843Z,295
2023-04-01T06:22:44.130Z,296
2023-04-01T06:27:43.016Z,291
2023-04-01T06:32:42.934Z,289
2023-04-01T06:37:42.873Z,288
2023-04-01T06:42:43.089Z,286
2023-04-01T06:47:45.919Z,288
2023-04-01T06:52:42.907Z,290
2023-04-01T06:57:42.865Z,298
2023-04-01T07:02:42.952Z,295
2023-04-01T07:07:43.100Z,325
2023-04-01T07:12:42.938Z,352
2023-04-01T07:17:42.856Z,348
2023-04-01T07:22:43.335Z,328
2023-04-01T07:27:43.020Z,357
2023-04-01T07:32:42.914Z,334
2023-04-01T07:37:42.891Z,327
2023-04-01T07:42:43.103Z,331
2023-04-01T07:47:42.921Z,325
2023-04-01T07:52:42.888Z,295
2023-04-01T07:57:42.900Z,294
2023-04-01T08:02:46.277Z,301
2023-04-01T08:07:42.959Z,306
2023-04-01T08:12:43.115Z,297
2023-04-01T08:17:42.906Z,297
2023-04-01T08:22:47.145Z,297
2023-04-01T08:27:42.906Z,293
2023-04-01T08:32:43.061Z,290
2023-04-01T08:37:42.880Z,294
2023-04-01T08:42:42.990Z,288
2023-04-01T08:47:42.968Z,294
2023-04-01T08:52:42.902Z,286
2023-04-01T08:57:43.146Z,302
2023-04-01T09:02:43.042Z,299
2023-04-01T09:07:42.958Z,303
2023-04-01T09:12:42.928Z,297
2023-04-01T09:17:42.986Z,305
2023-04-01T09:22:44.146Z,313
2023-04-01T09:27:43.164Z,301
2023-04-01T09:32:43.090Z,312
2023-04-01T09:37:43.053Z,325
2023-04-01T09:42:43.015Z,308
2023-04-01T09:47:43.043Z,317
2023-04-01T09:52:46.501Z,328
2023-04-01T09:57:43.094Z,307
2023-04-01T10:02:43.036Z,310
2023-04-01T10:07:42.972Z,323
2023-04-01T10:12:42.954Z,303
2023-04-01T10:17:43.112Z,301
2023-04-01T10:22:43.107Z,316
2023-04-01T10:27:43.127Z,321
2023-04-01T10:32:45.989Z,340
2023-04-01T10:37:42.950Z,383
2023-04-01T10:42:43.140Z,327
2023-04-01T10:47:42.968Z,329
2023-04-01T10:52:42.983Z,314
2023-04-01T10:57:42.987Z,312
2023-04-01T11:02:43.036Z,306
2023-04-01T11:07:43.981Z,318
2023-04-01T11:12:42.914Z,300
2023-04-01T11:17:42.896Z,298
2023-04-01T11:22:43.075Z,318
2023-04-01T11:27:42.914Z,312
2023-04-01T11:32:43.008Z,321
2023-04-01T11:37:42.908Z,327
2023-04-01T11:42:42.912Z,333
2023-04-01T11:47:42.912Z,334
2023-04-01T11:52:42.942Z,314
2023-04-01T11:57:42.943Z,303
2023-04-01T12:02:43.081Z,336
2023-04-01T12:07:44.285Z,308
2023-04-01T12:12:54.449Z,301
2023-04-01T12:17:42.978Z,294
2023-04-01T12:22:44.101Z,307
2023-04-01T12:27:43.108Z,315
2023-04-01T12:32:42.953Z,317
2023-04-01T12:37:43.020Z,295
2023-04-01T12:42:42.955Z,294
2023-04-01T12:47:43.013Z,289
2023-04-01T12:52:42.927Z,297
2023-04-01T12:57:42.900Z,301
2023-04-01T13:02:43.007Z,307
2023-04-01T13:07:42.957Z,319
2023-04-01T13:12:43.019Z,309
2023-04-01T13:17:42.996Z,299
2023-04-01T13:22:44.331Z,302
2023-04-01T13:27:42.964Z,308
2023-04-01T13:32:46.114Z,306
2023-04-01T13:37:42.948Z,297
2023-04-01T13:42:43.903Z,302
2023-04-01T13:47:42.996Z,319
2023-04-01T13:52:42.957Z,305
2023-04-01T13:57:43.026Z,302
2023-04-01T14:02:43.112Z,302
2023-04-01T14:07:42.943Z,295
2023-04-01T14:12:43.073Z,307
2023-04-01T14:17:42.944Z,314
2023-04-01T14:22:43.151Z,312
2023-04-01T14:27:43.048Z,300
2023-04-01T14:32:42.976Z,297
2023-04-01T14:37:42.942Z,294
2023-04-01T14:42:43.111Z,292
2023-04-01T14:47:43.057Z,284
2023-04-01T14:52:43.004Z,277
2023-04-01T14:57:43.022Z,284
2023-04-01T15:02:42.966Z,291
2023-04-01T15:07:42.975Z,288
2023-04-01T15:12:43.005Z,284
2023-04-01T15:17:43.015Z,288
2023-04-01T15:22:43.177Z,299
2023-04-01T15:27:43.045Z,296
2023-04-01T15:32:42.990Z,287
2023-04-01T15:37:42.949Z,282
2023-04-01T15:42:42.946Z,282
2023-04-01T15:47:43.024Z,280
2023-04-01T15:52:42.961Z,283
2023-04-01T15:57:42.920Z,284
2023-04-01T16:02:43.012Z,274
2023-04-01T16:07:42.935Z,271
2023-04-01T16:12:42.952Z,269
2023-04-01T16:17:42.996Z,269
2023-04-01T16:22:44.747Z,269
2023-04-01T16:27:43.015Z,267
2023-04-01T16:32:43.175Z,269
2023-04-01T16:37:42.904Z,269
2023-04-01T16:42:42.944Z,267
2023-04-01T16:47:43.448Z,265
2023-04-01T16:52:42.999Z,266
2023-04-01T16:57:43.013Z,0
2023-04-01T17:02:43.014Z,0
2023-04-01T17:07:42.991Z,0
2023-04-01T17:12:42.962Z,0
2023-04-01T17:17:43.058Z,0
2023-04-01T17:22:43.025Z,0
2023-04-01T17:27:43.042Z,0
2023-04-01T17:32:42.948Z,0
2023-04-01T17:37:43.051Z,0
2023-04-01T17:42:43.010Z,0
2023-04-01T17:47:43.006Z,0
2023-04-01T17:52:42.980Z,0
2023-04-01T17:57:43.051Z,0
2023-04-01T18:02:43.116Z,0
2023-04-01T18:07:42.985Z,0
2023-04-01T18:12:42.970Z,0
2023-04-01T18:17:42.969Z,0
2023-04-01T18:22:43.087Z,0
2023-04-01T18:27:42.977Z,0
2023-04-01T18:32:43.066Z,0
2023-04-01T18:37:42.989Z,0
2023-04-01T18:42:42.977Z,0
2023-04-01T18:47:43.011Z,0
2023-04-01T18:52:43.029Z,0
2023-04-01T19:07:42.996Z,0
2023-04-01T19:12:42.971Z,0
2023-04-01T19:17:43.032Z,0
2023-04-01T19:22:42.940Z,0
2023-04-01T19:27:42.965Z,0
2023-04-01T19:32:43.057Z,0
2023-04-01T19:42:43.018Z,0
2023-04-01T19:47:43.085Z,0
2023-04-01T19:52:42.978Z,0
2023-04-01T19:57:42.979Z,0
2023-04-01T20:02:43.123Z,0
2023-04-01T20:07:43.016Z,0
2023-04-01T20:12:43.370Z,0
2023-04-01T20:17:42.976Z,0
2023-04-01T20:22:42.967Z,0
2023-04-01T20:27:43.037Z,0
2023-04-01T20:32:43.054Z,0
2023-04-01T20:37:43.001Z,0
2023-04-01T20:42:42.990Z,0
2023-04-01T20:47:43.025Z,0
2023-04-01T20:52:43.026Z,0
2023-04-01T20:57:43.023Z,0
2023-04-01T21:02:43.047Z,0
2023-04-01T21:07:42.964Z,0
2023-04-01T21:12:43.019Z,0
2023-04-01T21:17:42.993Z,0
2023-04-01T21:22:42.998Z,0
2023-04-01T21:27:43.008Z,0
2023-04-01T21:32:43.089Z,0
2023-04-01T21:37:43.056Z,0
2023-04-01T21:42:42.996Z,0
2023-04-01T21:47:43.019Z,0
2023-04-01T21:52:43.036Z,0
2023-04-01T21:57:43.019Z,0
2023-04-01T22:02:43.117Z,0
2023-04-01T22:07:42.969Z,0
2023-04-01T22:12:42.998Z,0
2023-04-01T22:17:43.260Z,0
2023-04-01T22:22:43.034Z,0
2023-04-01T22:27:43.028Z,0
2023-04-01T22:32:43.080Z,0
2023-04-01T22:37:43.004Z,0
2023-04-01T22:42:43.088Z,0
2023-04-01T22:47:43.083Z,0
2023-04-01T22:52:42.973Z,0
2023-04-01T22:57:43.028Z,0
2023-04-01T23:02:43.037Z,0
2023-04-01T23:07:42.989Z,0
2023-04-01T23:12:43.076Z,0
2023-04-01T23:17:43.012Z,0
2023-04-01T23:22:42.973Z,0
2023-04-01T23:27:43.024Z,0
2023-04-01T23:32:43.008Z,0
2023-04-01T23:37:42.989Z,0
2023-04-01T23:42:43.052Z,0
2023-04-01T23:47:43.046Z,0
2023-04-01T23:52:43.179Z,0
2023-04-01T23:57:43.009Z,0
